createdAt,value
2017-09-20T00:00:17.437Z,1018.46
2017-09-20T00:01:26.284Z,1018.48
2017-09-20T00:02:35.463Z,1018.42
2017-09-20T00:03:44.309Z,1018.4
2017-09-20T00:04:53.155Z,1018.4
2017-09-20T00:06:02.149Z,1018.4
2017-09-20T00:07:10.990Z,1018.38
2017-09-20T00:08:19.836Z,1018.36
2017-09-20T00:09:28.680Z,1018.38
2017-09-20T00:10:37.528Z,1018.33
2017-09-20T00:11:46.669Z,1018.32
2017-09-20T00:12:55.514Z,1018.33
2017-09-20T00:14:04.366Z,1018.26
2017-09-20T00:15:13.209Z,1018.28
2017-09-20T00:16:22.052Z,1018.31
2017-09-20T00:17:31.045Z,1018.33
2017-09-20T00:18:39.885Z,1018.34
2017-09-20T00:19:48.746Z,1018.35
2017-09-20T00:20:57.924Z,1018.31
2017-09-20T00:22:06.765Z,1018.29
2017-09-20T00:23:15.708Z,1018.25
2017-09-20T00:24:24.552Z,1018.25
2017-09-20T00:25:33.394Z,1018.2
2017-09-20T00:26:42.237Z,1018.17
2017-09-20T00:27:51.079Z,1018.15
2017-09-20T00:29:00.072Z,1018.15
2017-09-20T00:30:08.916Z,1018.14
2017-09-20T00:31:17.757Z,1018.13
2017-09-20T00:32:26.599Z,1018.14
2017-09-20T00:33:35.444Z,1018.14
2017-09-20T00:34:44.536Z,1018.13
2017-09-20T00:35:53.380Z,1018.13
2017-09-20T00:37:02.224Z,1018.19
2017-09-20T00:38:11.068Z,1018.17
2017-09-20T00:39:20.243Z,1018.24
2017-09-20T00:40:29.235Z,1018.25
2017-09-20T00:41:38.076Z,1018.2
2017-09-20T00:42:46.917Z,1018.22
2017-09-20T00:43:55.757Z,1018.22
2017-09-20T00:45:04.599Z,1018.25
2017-09-20T00:46:13.689Z,1018.29
2017-09-20T00:47:22.534Z,1018.32
2017-09-20T00:48:31.379Z,1018.29
2017-09-20T00:49:40.221Z,1018.32
2017-09-20T00:50:49.065Z,1018.34
2017-09-20T00:51:58.376Z,1018.3
2017-09-20T00:53:07.187Z,1018.34
2017-09-20T00:54:16.030Z,1018.31
2017-09-20T00:55:25.202Z,1018.29
2017-09-20T00:56:34.044Z,1018.3
2017-09-20T00:57:42.935Z,1018.25
2017-09-20T00:58:51.777Z,1018.25
2017-09-20T01:00:00.627Z,1018.25
2017-09-20T01:01:09.470Z,1018.26
2017-09-20T01:02:18.311Z,1018.27
2017-09-20T01:03:27.202Z,1018.24
2017-09-20T01:04:36.046Z,1018.24
2017-09-20T01:05:45.226Z,1018.23
2017-09-20T01:06:54.070Z,1018.23
2017-09-20T01:08:02.911Z,1018.23
2017-09-20T01:09:12.057Z,1018.22
2017-09-20T01:10:20.900Z,1018.21
2017-09-20T01:11:29.743Z,1018.21
2017-09-20T01:12:38.585Z,1018.16
2017-09-20T01:13:47.427Z,1018.17
2017-09-20T01:14:56.421Z,1018.12
2017-09-20T01:16:05.293Z,1018.14
2017-09-20T01:17:14.105Z,1018.18
2017-09-20T01:18:22.946Z,1018.22
2017-09-20T01:19:31.794Z,1018.21
2017-09-20T01:20:40.686Z,1018.22
2017-09-20T01:21:49.527Z,1018.21
2017-09-20T01:22:58.367Z,1018.22
2017-09-20T01:24:07.212Z,1018.22
2017-09-20T01:25:16.051Z,1018.2
2017-09-20T01:26:25.047Z,1018.17
2017-09-20T01:27:33.889Z,1018.18
2017-09-20T01:28:42.734Z,1018.16
2017-09-20T01:29:51.574Z,1018.12
2017-09-20T01:31:00.418Z,1018.14
2017-09-20T01:32:09.645Z,1018.13
2017-09-20T01:33:18.490Z,1018.12
2017-09-20T01:34:27.335Z,1018.15
2017-09-20T01:35:36.180Z,1018.12
2017-09-20T01:36:45.025Z,1018.11
2017-09-20T01:37:53.967Z,1018.13
2017-09-20T01:39:03.154Z,1018.15
2017-09-20T01:40:11.993Z,1018.15
2017-09-20T01:41:20.838Z,1018.2
2017-09-20T01:42:29.679Z,1018.19
2017-09-20T01:43:38.823Z,1018.22
2017-09-20T01:44:47.665Z,1018.22
2017-09-20T01:45:56.510Z,1018.17
2017-09-20T01:47:05.353Z,1018.14
2017-09-20T01:48:14.195Z,1018.1
2017-09-20T01:49:23.338Z,1018.1
2017-09-20T01:50:32.180Z,1018.07
2017-09-20T01:51:41.023Z,1018.07
2017-09-20T01:52:49.862Z,1018.07
2017-09-20T01:53:58.703Z,1018.05
2017-09-20T01:55:07.850Z,1018.07
2017-09-20T01:56:16.690Z,1018.12
2017-09-20T01:57:25.866Z,1018.07
2017-09-20T01:58:34.708Z,1018.12
2017-09-20T01:59:43.552Z,1018.07
2017-09-20T02:00:53.126Z,1018.1
2017-09-20T02:02:01.967Z,1018.08
2017-09-20T02:03:10.811Z,1018.15
2017-09-20T02:04:19.651Z,1018.16
2017-09-20T02:05:28.493Z,1018.15
2017-09-20T02:06:37.488Z,1018.12
2017-09-20T02:07:46.331Z,1018.13
2017-09-20T02:08:55.169Z,1018.14
2017-09-20T02:10:04.011Z,1018.12
2017-09-20T02:11:12.855Z,1018.09
2017-09-20T02:12:21.696Z,1018.11
2017-09-20T02:13:30.538Z,1018.08
2017-09-20T02:14:39.377Z,1018.09
2017-09-20T02:15:48.220Z,1018.09
2017-09-20T02:16:57.062Z,1018.12
2017-09-20T02:18:06.104Z,1018.14
2017-09-20T02:19:14.949Z,1018.24
2017-09-20T02:20:23.790Z,1018.2
2017-09-20T02:21:32.632Z,1018.25
2017-09-20T02:22:41.474Z,1018.25
2017-09-20T02:23:50.464Z,1018.23
2017-09-20T02:24:59.307Z,1018.31
2017-09-20T02:26:08.172Z,1018.27
2017-09-20T02:27:16.993Z,1018.31
2017-09-20T02:28:25.836Z,1018.3
2017-09-20T02:29:34.879Z,1018.24
2017-09-20T02:30:43.721Z,1018.23
2017-09-20T02:31:52.560Z,1018.26
2017-09-20T02:33:01.404Z,1018.27
2017-09-20T02:34:10.246Z,1018.29
2017-09-20T02:35:19.136Z,1018.29
2017-09-20T02:36:27.978Z,1018.27
2017-09-20T02:37:36.820Z,1018.24
2017-09-20T02:38:45.661Z,1018.22
2017-09-20T02:39:54.502Z,1018.21
2017-09-20T02:41:03.444Z,1018.18
2017-09-20T02:42:12.285Z,1018.2
2017-09-20T02:43:21.127Z,1018.19
2017-09-20T02:44:29.966Z,1018.16
2017-09-20T02:45:38.806Z,1018.16
2017-09-20T02:46:47.695Z,1018.14
2017-09-20T02:47:56.539Z,1018.11
2017-09-20T02:49:05.382Z,1018.11
2017-09-20T02:50:14.223Z,1018.13
2017-09-20T02:51:23.398Z,1018.13
2017-09-20T02:52:32.341Z,1018.14
2017-09-20T02:53:41.183Z,1018.14
2017-09-20T02:54:50.024Z,1018.14
2017-09-20T02:55:58.866Z,1018.19
2017-09-20T02:57:07.709Z,1018.17
2017-09-20T02:58:16.852Z,1018.17
2017-09-20T02:59:25.692Z,1018.19
2017-09-20T03:00:34.535Z,1018.19
2017-09-20T03:01:43.376Z,1018.16
2017-09-20T03:02:52.219Z,1018.15
2017-09-20T03:04:01.159Z,1018.2
2017-09-20T03:05:10.000Z,1018.14
2017-09-20T03:06:18.840Z,1018.22
2017-09-20T03:07:27.700Z,1018.2
2017-09-20T03:08:36.520Z,1018.22
2017-09-20T03:09:45.561Z,1018.21
2017-09-20T03:10:54.402Z,1018.19
2017-09-20T03:12:03.244Z,1018.2
2017-09-20T03:13:12.415Z,1018.24
2017-09-20T03:14:21.258Z,1018.29
2017-09-20T03:15:30.152Z,1018.3
2017-09-20T03:16:38.992Z,1018.25
2017-09-20T03:17:47.836Z,1018.29
2017-09-20T03:18:56.677Z,1018.27
2017-09-20T03:20:05.518Z,1018.3
2017-09-20T03:21:14.661Z,1018.31
2017-09-20T03:22:23.499Z,1018.29
2017-09-20T03:23:32.340Z,1018.29
2017-09-20T03:24:41.181Z,1018.27
2017-09-20T03:25:50.018Z,1018.27
2017-09-20T03:26:58.862Z,1018.29
2017-09-20T03:28:07.701Z,1018.31
2017-09-20T03:29:16.542Z,1018.29
2017-09-20T03:30:25.383Z,1018.27
2017-09-20T03:31:34.224Z,1018.27
2017-09-20T03:32:43.116Z,1018.27
2017-09-20T03:33:51.955Z,1018.28
2017-09-20T03:35:00.801Z,1018.27
2017-09-20T03:36:09.637Z,1018.31
2017-09-20T03:37:18.479Z,1018.32
2017-09-20T03:38:27.420Z,1018.36
2017-09-20T03:39:36.258Z,1018.33
2017-09-20T03:40:45.100Z,1018.31
2017-09-20T03:41:53.940Z,1018.33
2017-09-20T03:43:03.030Z,1018.34
2017-09-20T03:44:11.872Z,1018.37
2017-09-20T03:45:20.711Z,1018.34
2017-09-20T03:46:29.886Z,1018.36
2017-09-20T03:47:38.727Z,1018.38
2017-09-20T03:48:47.569Z,1018.37
2017-09-20T03:49:56.460Z,1018.42
2017-09-20T03:51:05.302Z,1018.42
2017-09-20T03:52:14.145Z,1018.41
2017-09-20T03:53:22.988Z,1018.39
2017-09-20T03:54:31.831Z,1018.44
2017-09-20T03:55:41.058Z,1018.43
2017-09-20T03:56:49.898Z,1018.49
2017-09-20T03:57:58.741Z,1018.47
2017-09-20T03:59:07.583Z,1018.52
2017-09-20T04:00:16.425Z,1018.49
2017-09-20T04:01:25.415Z,1018.47
2017-09-20T04:02:34.256Z,1018.41
2017-09-20T04:03:43.434Z,1018.4
2017-09-20T04:04:52.277Z,1018.38
2017-09-20T04:06:01.120Z,1018.45
2017-09-20T04:07:10.015Z,1018.42
2017-09-20T04:08:18.860Z,1018.42
2017-09-20T04:09:27.702Z,1018.42
2017-09-20T04:10:36.545Z,1018.39
2017-09-20T04:11:45.390Z,1018.41
2017-09-20T04:12:54.282Z,1018.42
2017-09-20T04:14:03.126Z,1018.38
2017-09-20T04:15:11.969Z,1018.47
2017-09-20T04:16:20.813Z,1018.45
2017-09-20T04:17:29.657Z,1018.39
2017-09-20T04:18:38.599Z,1018.42
2017-09-20T04:19:47.443Z,1018.39
2017-09-20T04:20:56.285Z,1018.4
2017-09-20T04:22:05.128Z,1018.36
2017-09-20T04:23:13.969Z,1018.4
2017-09-20T04:24:22.914Z,1018.39
2017-09-20T04:25:31.756Z,1018.44
2017-09-20T04:26:40.601Z,1018.42
2017-09-20T04:27:49.445Z,1018.48
2017-09-20T04:28:58.287Z,1018.45
2017-09-20T04:30:07.356Z,1018.43
2017-09-20T04:31:16.175Z,1018.43
2017-09-20T04:32:25.018Z,1018.44
2017-09-20T04:33:33.858Z,1018.42
2017-09-20T04:34:42.702Z,1018.48
2017-09-20T04:35:51.593Z,1018.5
2017-09-20T04:37:00.437Z,1018.47
2017-09-20T04:38:09.280Z,1018.48
2017-09-20T04:39:18.123Z,1018.49
2017-09-20T04:40:26.964Z,1018.51
2017-09-20T04:41:36.007Z,1018.45
2017-09-20T04:42:44.846Z,1018.47
2017-09-20T04:43:53.688Z,1018.5
2017-09-20T04:45:02.530Z,1018.5
2017-09-20T04:46:11.382Z,1018.53
2017-09-20T04:47:20.476Z,1018.52
2017-09-20T04:48:29.321Z,1018.53
2017-09-20T04:49:38.163Z,1018.51
2017-09-20T04:50:47.007Z,1018.54
2017-09-20T04:51:55.850Z,1018.53
2017-09-20T04:53:04.693Z,1018.51
2017-09-20T04:54:13.537Z,1018.54
2017-09-20T04:55:22.383Z,1018.52
2017-09-20T04:56:31.556Z,1018.52
2017-09-20T04:57:40.399Z,1018.58
2017-09-20T04:58:49.241Z,1018.54
2017-09-20T04:59:58.083Z,1018.58
2017-09-20T05:01:06.927Z,1018.56
2017-09-20T05:02:15.773Z,1018.56
2017-09-20T05:03:24.617Z,1018.57
2017-09-20T05:04:33.564Z,1018.61
2017-09-20T05:05:42.409Z,1018.61
2017-09-20T05:06:51.250Z,1018.59
2017-09-20T05:08:00.092Z,1018.58
2017-09-20T05:09:08.936Z,1018.58
2017-09-20T05:10:18.033Z,1018.62
2017-09-20T05:11:26.876Z,1018.62
2017-09-20T05:12:35.720Z,1018.64
2017-09-20T05:13:44.588Z,1018.68
2017-09-20T05:14:53.432Z,1018.7
2017-09-20T05:16:02.378Z,1018.69
2017-09-20T05:17:11.220Z,1018.74
2017-09-20T05:18:20.071Z,1018.7
2017-09-20T05:19:28.915Z,1018.73
2017-09-20T05:20:37.760Z,1018.72
2017-09-20T05:21:46.652Z,1018.73
2017-09-20T05:22:55.495Z,1018.77
2017-09-20T05:24:04.339Z,1018.78
2017-09-20T05:25:13.179Z,1018.78
2017-09-20T05:26:22.022Z,1018.75
2017-09-20T05:27:31.014Z,1018.77
2017-09-20T05:28:39.857Z,1018.78
2017-09-20T05:29:48.700Z,1018.77
2017-09-20T05:30:57.546Z,1018.8
2017-09-20T05:32:06.389Z,1018.85
2017-09-20T05:33:15.236Z,1018.82
2017-09-20T05:34:24.081Z,1018.81
2017-09-20T05:35:32.922Z,1018.77
2017-09-20T05:36:41.815Z,1018.8
2017-09-20T05:37:50.960Z,1018.77
2017-09-20T05:38:59.804Z,1018.77
2017-09-20T05:40:08.980Z,1018.83
2017-09-20T05:41:17.825Z,1018.85
2017-09-20T05:42:26.669Z,1018.89
2017-09-20T05:43:35.512Z,1018.87
2017-09-20T05:44:44.353Z,1018.89
2017-09-20T05:45:53.200Z,1018.89
2017-09-20T05:47:02.375Z,1018.87
2017-09-20T05:48:11.267Z,1018.9
2017-09-20T05:49:20.111Z,1018.87
2017-09-20T05:50:28.954Z,1018.88
2017-09-20T05:51:37.798Z,1018.9
2017-09-20T05:52:46.640Z,1018.89
2017-09-20T05:53:55.486Z,1018.89
2017-09-20T05:55:04.329Z,1018.88
2017-09-20T05:56:13.172Z,1018.92
2017-09-20T05:57:22.348Z,1018.9
2017-09-20T05:58:31.442Z,1018.88
2017-09-20T05:59:40.286Z,1018.9
2017-09-20T06:00:49.133Z,1018.89
2017-09-20T06:01:57.986Z,1018.93
2017-09-20T06:03:06.828Z,1018.93
2017-09-20T06:04:15.725Z,1018.91
2017-09-20T06:05:24.900Z,1018.93
2017-09-20T06:06:33.744Z,1018.89
2017-09-20T06:07:42.586Z,1018.94
2017-09-20T06:08:51.427Z,1018.92
2017-09-20T06:10:00.421Z,1018.9
2017-09-20T06:11:09.265Z,1018.92
2017-09-20T06:12:18.106Z,1018.92
2017-09-20T06:13:26.951Z,1018.95
2017-09-20T06:14:35.795Z,1018.99
2017-09-20T06:15:44.688Z,1018.97
2017-09-20T06:16:53.530Z,1018.96
2017-09-20T06:18:02.373Z,1018.94
2017-09-20T06:19:11.218Z,1018.97
2017-09-20T06:20:20.059Z,1019.02
2017-09-20T06:21:29.203Z,1019.01
2017-09-20T06:22:38.049Z,1019
2017-09-20T06:23:46.892Z,1018.92
2017-09-20T06:24:55.735Z,1018.89
2017-09-20T06:26:04.581Z,1018.91
2017-09-20T06:27:13.476Z,1018.91
2017-09-20T06:28:22.325Z,1018.94
2017-09-20T06:29:31.167Z,1018.96
2017-09-20T06:30:40.013Z,1018.95
2017-09-20T06:31:48.856Z,1018.96
2017-09-20T06:32:57.999Z,1018.97
2017-09-20T06:34:06.845Z,1018.96
2017-09-20T06:35:15.688Z,1018.94
2017-09-20T06:36:24.533Z,1018.98
2017-09-20T06:37:33.379Z,1018.98
2017-09-20T06:38:42.473Z,1019.01
2017-09-20T06:39:51.317Z,1018.99
2017-09-20T06:41:00.160Z,1019
2017-09-20T06:42:09.336Z,1018.98
2017-09-20T06:43:18.184Z,1019.02
2017-09-20T06:44:27.077Z,1019
2017-09-20T06:45:35.919Z,1019.01
2017-09-20T06:46:44.765Z,1019.04
2017-09-20T06:47:53.609Z,1019.02
2017-09-20T06:49:02.454Z,1019.1
2017-09-20T06:50:11.605Z,1019.09
2017-09-20T06:51:20.447Z,1019.13
2017-09-20T06:52:29.292Z,1019.05
2017-09-20T06:53:38.137Z,1019.06
2017-09-20T06:54:46.986Z,1019.11
2017-09-20T06:55:55.882Z,1019.06
2017-09-20T06:57:04.725Z,1019.1
2017-09-20T06:58:13.575Z,1019.04
2017-09-20T06:59:22.452Z,1019.06
2017-09-20T07:00:31.298Z,1019.1
2017-09-20T07:01:40.191Z,1019.08
2017-09-20T07:02:49.067Z,1019.05
2017-09-20T07:03:57.917Z,1019.08
2017-09-20T07:05:06.781Z,1019.05
2017-09-20T07:06:15.625Z,1019.11
2017-09-20T07:07:24.770Z,1019.13
2017-09-20T07:08:33.614Z,1019.15
2017-09-20T07:09:42.461Z,1019.17
2017-09-20T07:10:51.306Z,1019.23
2017-09-20T07:12:00.517Z,1019.19
2017-09-20T07:13:09.662Z,1019.21
2017-09-20T07:14:18.506Z,1019.23
2017-09-20T07:15:27.352Z,1019.21
2017-09-20T07:16:36.195Z,1019.22
2017-09-20T07:17:45.099Z,1019.23
2017-09-20T07:18:54.095Z,1019.22
2017-09-20T07:20:02.940Z,1019.22
2017-09-20T07:21:11.873Z,1019.22
2017-09-20T07:22:20.723Z,1019.2
2017-09-20T07:23:29.569Z,1019.23
2017-09-20T07:24:38.799Z,1019.16
2017-09-20T07:25:47.641Z,1019.22
2017-09-20T07:26:56.524Z,1019.18
2017-09-20T07:28:05.430Z,1019.15
2017-09-20T07:29:14.276Z,1019.17
2017-09-20T07:30:23.274Z,1019.19
2017-09-20T07:31:32.545Z,1019.2
2017-09-20T07:32:41.390Z,1019.14
2017-09-20T07:33:50.239Z,1019.18
2017-09-20T07:34:59.084Z,1019.15
2017-09-20T07:36:08.134Z,1019.19
2017-09-20T07:37:16.981Z,1019.21
2017-09-20T07:38:25.839Z,1019.19
2017-09-20T07:39:34.802Z,1019.18
2017-09-20T07:40:43.650Z,1019.17
2017-09-20T07:41:52.562Z,1019.2
2017-09-20T07:43:01.642Z,1019.2
2017-09-20T07:44:10.487Z,1019.23
2017-09-20T07:45:19.370Z,1019.26
2017-09-20T07:46:28.655Z,1019.18
2017-09-20T07:49:16.450Z,1019.2
2017-09-20T07:50:25.921Z,1019.24
2017-09-20T07:51:34.765Z,1019.26
2017-09-20T07:52:43.662Z,1019.25
2017-09-20T07:53:52.506Z,1019.31
2017-09-20T07:55:01.363Z,1019.22
2017-09-20T07:56:10.232Z,1019.21
2017-09-20T07:57:19.111Z,1019.2
2017-09-20T07:58:28.876Z,1019.17
2017-09-20T07:59:37.722Z,1019.17
2017-09-20T08:00:46.569Z,1019.18
2017-09-20T08:01:55.755Z,1019.18
2017-09-20T08:03:05.003Z,1019.17
2017-09-20T08:04:13.985Z,1019.2
2017-09-20T08:05:23.232Z,1019.2
2017-09-20T08:06:32.173Z,1019.24
2017-09-20T08:07:41.139Z,1019.26
2017-09-20T08:08:50.009Z,1019.23
2017-09-20T08:09:59.083Z,1019.21
2017-09-20T08:11:08.006Z,1019.25
2017-09-20T08:12:16.879Z,1019.3
2017-09-20T08:13:25.761Z,1019.29
2017-09-20T08:14:34.698Z,1019.29
2017-09-20T08:15:43.666Z,1019.27
2017-09-20T08:16:52.534Z,1019.26
2017-09-20T08:18:01.393Z,1019.3
2017-09-20T08:19:10.257Z,1019.27
2017-09-20T08:20:19.124Z,1019.3
2017-09-20T08:21:28.334Z,1019.32
2017-09-20T08:22:37.212Z,1019.32
2017-09-20T08:23:46.075Z,1019.32
2017-09-20T08:24:55.292Z,1019.28
2017-09-20T08:26:04.138Z,1019.31
2017-09-20T08:27:13.086Z,1019.36
2017-09-20T08:28:22.107Z,1019.36
2017-09-20T08:29:31.032Z,1019.35
2017-09-20T08:30:39.955Z,1019.35
2017-09-20T08:31:48.824Z,1019.36
2017-09-20T08:32:57.931Z,1019.4
2017-09-20T08:34:06.779Z,1019.4
2017-09-20T08:35:15.624Z,1019.37
2017-09-20T08:36:24.469Z,1019.4
2017-09-20T08:37:33.312Z,1019.44
2017-09-20T08:38:42.557Z,1019.43
2017-09-20T08:39:51.412Z,1019.43
2017-09-20T08:41:00.266Z,1019.38
2017-09-20T08:42:09.449Z,1019.41
2017-09-20T08:43:18.258Z,1019.46
2017-09-20T08:44:27.154Z,1019.39
2017-09-20T08:45:35.999Z,1019.36
2017-09-20T08:46:44.876Z,1019.43
2017-09-20T08:47:53.693Z,1019.42
2017-09-20T08:49:02.540Z,1019.44
2017-09-20T08:50:11.536Z,1019.43
2017-09-20T08:51:20.511Z,1019.45
2017-09-20T08:52:29.357Z,1019.46
2017-09-20T08:53:38.203Z,1019.46
2017-09-20T08:54:47.071Z,1019.49
2017-09-20T08:55:56.004Z,1019.48
2017-09-20T08:57:04.850Z,1019.46
2017-09-20T08:58:13.700Z,1019.47
2017-09-20T08:59:22.889Z,1019.5
2017-09-20T09:00:32.080Z,1019.52
2017-09-20T09:01:41.027Z,1019.5
2017-09-20T09:02:49.872Z,1019.55
2017-09-20T09:03:58.717Z,1019.54
2017-09-20T09:05:07.563Z,1019.54
2017-09-20T09:06:16.739Z,1019.55
2017-09-20T09:07:25.731Z,1019.59
2017-09-20T09:08:34.577Z,1019.56
2017-09-20T09:09:43.463Z,1019.58
2017-09-20T09:10:52.310Z,1019.57
2017-09-20T09:12:01.476Z,1019.6
2017-09-20T09:13:10.420Z,1019.57
2017-09-20T09:14:19.288Z,1019.57
2017-09-20T09:15:28.132Z,1019.58
2017-09-20T09:16:36.979Z,1019.6
2017-09-20T09:17:45.828Z,1019.58
2017-09-20T09:18:54.825Z,1019.61
2017-09-20T09:20:03.984Z,1019.6
2017-09-20T09:21:12.831Z,1019.57
2017-09-20T09:22:22.988Z,1019.66
2017-09-20T09:23:31.839Z,1019.64
2017-09-20T09:24:40.836Z,1019.63
2017-09-20T09:25:49.681Z,1019.57
2017-09-20T09:26:58.527Z,1019.6
2017-09-20T09:28:07.736Z,1019.64
2017-09-20T09:29:16.587Z,1019.68
2017-09-20T09:30:25.583Z,1019.64
2017-09-20T09:31:34.459Z,1019.66
2017-09-20T09:32:43.311Z,1019.65
2017-09-20T09:33:52.188Z,1019.63
2017-09-20T09:35:01.045Z,1019.63
2017-09-20T09:36:10.142Z,1019.66
2017-09-20T09:37:18.989Z,1019.67
2017-09-20T09:38:27.861Z,1019.7
2017-09-20T09:39:37.040Z,1019.7
2017-09-20T09:40:45.886Z,1019.73
2017-09-20T09:41:54.841Z,1019.71
2017-09-20T09:43:03.696Z,1019.78
2017-09-20T09:44:12.568Z,1019.74
2017-09-20T09:45:21.414Z,1019.76
2017-09-20T09:46:30.262Z,1019.76
2017-09-20T09:47:39.358Z,1019.74
2017-09-20T09:48:48.209Z,1019.76
2017-09-20T09:49:57.052Z,1019.74
2017-09-20T09:51:06.433Z,1019.75
2017-09-20T09:52:15.280Z,1019.73
2017-09-20T09:53:24.433Z,1019.78
2017-09-20T09:54:33.278Z,1019.75
2017-09-20T09:55:42.142Z,1019.78
2017-09-20T09:56:50.989Z,1019.74
2017-09-20T09:57:59.839Z,1019.72
2017-09-20T09:59:09.185Z,1019.73
2017-09-20T10:00:18.031Z,1019.8
2017-09-20T10:01:26.876Z,1019.77
2017-09-20T10:02:35.722Z,1019.71
2017-09-20T10:03:44.565Z,1019.75
2017-09-20T10:04:53.508Z,1019.71
2017-09-20T10:06:02.356Z,1019.73
2017-09-20T10:07:11.680Z,1019.79
2017-09-20T10:08:20.530Z,1019.79
2017-09-20T10:09:29.373Z,1019.8
2017-09-20T10:10:38.436Z,1019.78
2017-09-20T10:11:47.323Z,1019.81
2017-09-20T10:12:56.171Z,1019.77
2017-09-20T10:14:05.025Z,1019.83
2017-09-20T10:15:13.903Z,1019.76
2017-09-20T10:16:23.054Z,1019.76
2017-09-20T10:17:31.903Z,1019.8
2017-09-20T10:18:40.753Z,1019.81
2017-09-20T10:19:49.600Z,1019.77
2017-09-20T10:20:58.447Z,1019.83
2017-09-20T10:22:07.445Z,1019.83
2017-09-20T10:23:16.291Z,1019.78
2017-09-20T10:24:25.135Z,1019.85
2017-09-20T10:25:34.321Z,1019.84
2017-09-20T10:26:43.166Z,1019.85
2017-09-20T10:27:52.164Z,1019.85
2017-09-20T10:29:01.012Z,1019.93
2017-09-20T10:30:09.863Z,1019.87
2017-09-20T10:31:18.709Z,1019.82
2017-09-20T10:32:27.555Z,1019.85
2017-09-20T10:33:36.803Z,1019.84
2017-09-20T10:34:45.648Z,1019.83
2017-09-20T10:35:54.490Z,1019.79
2017-09-20T10:37:03.337Z,1019.79
2017-09-20T10:38:12.181Z,1019.83
2017-09-20T10:39:21.126Z,1019.85
2017-09-20T10:40:29.998Z,1019.81
2017-09-20T10:41:38.819Z,1019.86
2017-09-20T10:42:47.657Z,1019.86
2017-09-20T10:43:56.502Z,1019.84
2017-09-20T10:45:05.497Z,1019.85
2017-09-20T10:46:14.339Z,1019.85
2017-09-20T10:47:23.184Z,1019.88
2017-09-20T10:48:32.370Z,1019.92
2017-09-20T10:49:41.215Z,1019.92
2017-09-20T10:50:50.208Z,1019.97
2017-09-20T10:51:59.052Z,1019.93
2017-09-20T10:53:07.897Z,1019.92
2017-09-20T10:54:16.740Z,1019.97
2017-09-20T10:55:25.586Z,1019.96
2017-09-20T10:56:34.481Z,1020
2017-09-20T10:57:43.326Z,1019.96
2017-09-20T10:58:52.510Z,1019.92
2017-09-20T11:00:01.685Z,1019.97
2017-09-20T11:01:10.537Z,1019.89
2017-09-20T11:02:19.483Z,1019.92
2017-09-20T11:03:28.328Z,1019.94
2017-09-20T11:04:37.172Z,1019.96
2017-09-20T11:05:46.026Z,1019.92
2017-09-20T11:06:55.200Z,1019.92
2017-09-20T11:08:04.097Z,1019.92
2017-09-20T11:09:12.944Z,1019.94
2017-09-20T11:10:21.788Z,1019.94
2017-09-20T11:11:30.632Z,1019.92
2017-09-20T11:12:39.481Z,1019.89
2017-09-20T11:13:48.474Z,1019.93
2017-09-20T11:14:57.323Z,1019.85
2017-09-20T11:16:06.497Z,1019.93
2017-09-20T11:17:15.341Z,1019.9
2017-09-20T11:18:24.861Z,1019.88
2017-09-20T11:19:33.856Z,1019.85
2017-09-20T11:20:42.700Z,1019.89
2017-09-20T11:21:51.545Z,1019.85
2017-09-20T11:23:00.389Z,1019.89
2017-09-20T11:24:09.233Z,1019.9
2017-09-20T11:25:18.492Z,1019.92
2017-09-20T11:26:27.339Z,1019.89
2017-09-20T11:27:36.186Z,1019.87
2017-09-20T11:28:45.032Z,1019.86
2017-09-20T11:29:53.876Z,1019.84
2017-09-20T11:31:02.875Z,1019.8
2017-09-20T11:32:12.068Z,1019.82
2017-09-20T11:33:21.582Z,1019.83
2017-09-20T11:34:30.427Z,1019.86
2017-09-20T11:35:39.270Z,1019.81
2017-09-20T11:36:48.267Z,1019.79
2017-09-20T11:37:57.111Z,1019.77
2017-09-20T11:39:05.956Z,1019.8
2017-09-20T11:40:14.804Z,1019.84
2017-09-20T11:41:23.649Z,1019.83
2017-09-20T11:42:32.640Z,1019.76
2017-09-20T11:43:41.492Z,1019.78
2017-09-20T11:44:50.339Z,1019.75
2017-09-20T11:45:59.189Z,1019.79
2017-09-20T11:47:08.045Z,1019.77
2017-09-20T11:48:17.093Z,1019.81
2017-09-20T11:49:25.938Z,1019.79
2017-09-20T11:50:34.784Z,1019.81
2017-09-20T11:51:43.630Z,1019.84
2017-09-20T11:52:52.476Z,1019.82
2017-09-20T11:54:01.370Z,1019.86
2017-09-20T11:55:10.219Z,1019.8
2017-09-20T11:56:19.067Z,1019.83
2017-09-20T11:57:27.910Z,1019.76
2017-09-20T11:58:37.085Z,1019.75
2017-09-20T11:59:46.077Z,1019.77
2017-09-20T12:00:54.921Z,1019.78
2017-09-20T12:02:04.098Z,1019.75
2017-09-20T12:03:12.943Z,1019.76
2017-09-20T12:04:21.790Z,1019.8
2017-09-20T12:05:30.786Z,1019.84
2017-09-20T12:06:39.629Z,1019.82
2017-09-20T12:07:48.477Z,1019.84
2017-09-20T12:08:57.324Z,1019.82
2017-09-20T12:10:06.169Z,1019.83
2017-09-20T12:11:15.165Z,1019.84
2017-09-20T12:12:24.010Z,1019.84
2017-09-20T12:13:32.856Z,1019.83
2017-09-20T12:14:41.700Z,1019.83
2017-09-20T12:15:50.544Z,1019.81
2017-09-20T12:16:59.543Z,1019.83
2017-09-20T12:18:08.386Z,1019.79
2017-09-20T12:19:17.231Z,1019.78
2017-09-20T12:20:26.080Z,1019.79
2017-09-20T12:21:35.256Z,1019.75
2017-09-20T12:22:44.200Z,1019.79
2017-09-20T12:23:53.045Z,1019.75
2017-09-20T12:25:01.890Z,1019.75
2017-09-20T12:26:10.739Z,1019.72
2017-09-20T12:27:19.582Z,1019.72
2017-09-20T12:28:28.480Z,1019.75
2017-09-20T12:29:37.322Z,1019.75
2017-09-20T12:30:46.830Z,1019.76
2017-09-20T12:31:55.677Z,1019.81
2017-09-20T12:33:04.524Z,1019.75
2017-09-20T12:34:13.748Z,1019.75
2017-09-20T12:35:22.926Z,1019.76
2017-09-20T12:36:31.773Z,1019.8
2017-09-20T12:37:40.627Z,1019.81
2017-09-20T12:38:49.799Z,1019.77
2017-09-20T12:39:58.694Z,1019.86
2017-09-20T12:41:07.540Z,1019.9
2017-09-20T12:42:16.393Z,1019.83
2017-09-20T12:43:25.612Z,1019.87
2017-09-20T12:44:34.456Z,1019.85
2017-09-20T12:45:43.600Z,1019.88
2017-09-20T12:46:52.445Z,1019.84
2017-09-20T12:48:01.291Z,1019.88
2017-09-20T12:49:10.134Z,1019.9
2017-09-20T12:50:18.979Z,1019.82
2017-09-20T12:51:27.874Z,1019.87
2017-09-20T12:52:36.723Z,1019.83
2017-09-20T12:53:45.560Z,1019.84
2017-09-20T12:54:54.406Z,1019.82
2017-09-20T12:56:03.587Z,1019.84
2017-09-20T12:57:12.585Z,1019.82
2017-09-20T12:58:21.427Z,1019.8
2017-09-20T12:59:30.272Z,1019.84
2017-09-20T13:00:39.119Z,1019.76
2017-09-20T13:01:47.961Z,1019.8
2017-09-20T13:02:56.957Z,1019.77
2017-09-20T13:04:05.801Z,1019.81
2017-09-20T13:05:14.645Z,1019.8
2017-09-20T13:06:23.490Z,1019.79
2017-09-20T13:07:32.331Z,1019.76
2017-09-20T13:08:41.229Z,1019.77
2017-09-20T13:09:50.074Z,1019.81
2017-09-20T13:10:58.920Z,1019.79
2017-09-20T13:12:07.767Z,1019.82
2017-09-20T13:13:16.613Z,1019.77
2017-09-20T13:14:25.560Z,1019.78
2017-09-20T13:15:34.407Z,1019.77
2017-09-20T13:16:43.254Z,1019.76
2017-09-20T13:17:52.099Z,1019.76
2017-09-20T13:19:00.945Z,1019.75
2017-09-20T13:20:09.839Z,1019.73
2017-09-20T13:21:18.685Z,1019.75
2017-09-20T13:22:27.583Z,1019.76
2017-09-20T13:23:36.430Z,1019.76
2017-09-20T13:24:45.278Z,1019.72
2017-09-20T13:25:54.374Z,1019.7
2017-09-20T13:27:03.216Z,1019.68
2017-09-20T13:28:12.061Z,1019.66
2017-09-20T13:29:20.907Z,1019.7
2017-09-20T13:30:29.802Z,1019.67
2017-09-20T13:31:38.849Z,1019.67
2017-09-20T13:32:47.693Z,1019.67
2017-09-20T13:33:56.538Z,1019.71
2017-09-20T13:35:05.384Z,1019.66
2017-09-20T13:36:14.228Z,1019.63
2017-09-20T13:37:23.121Z,1019.65
2017-09-20T13:38:32.020Z,1019.7
2017-09-20T13:39:40.864Z,1019.67
2017-09-20T13:40:49.710Z,1019.7
2017-09-20T13:41:58.557Z,1019.66
2017-09-20T13:43:07.555Z,1019.66
2017-09-20T13:44:16.405Z,1019.71
2017-09-20T13:45:25.248Z,1019.66
2017-09-20T13:46:34.092Z,1019.65
2017-09-20T13:47:42.948Z,1019.7
2017-09-20T13:48:51.897Z,1019.65
2017-09-20T13:50:01.075Z,1019.66
2017-09-20T13:51:09.929Z,1019.62
2017-09-20T13:52:18.800Z,1019.64
2017-09-20T13:53:27.652Z,1019.66
2017-09-20T13:54:36.597Z,1019.67
2017-09-20T13:55:45.445Z,1019.65
2017-09-20T13:56:54.293Z,1019.66
2017-09-20T13:58:03.137Z,1019.66